createdAt,value
2022-10-02T00:00:55.547Z,4.17
2022-10-02T00:03:27.109Z,4.83
2022-10-02T00:06:03.785Z,5.57
2022-10-02T00:08:36.581Z,4.37
2022-10-02T00:11:10.682Z,4.90
2022-10-02T00:13:42.382Z,4.70
2022-10-02T00:16:20.518Z,3.63
2022-10-02T00:18:49.330Z,5.23
2022-10-02T00:21:33.190Z,3.37
2022-10-02T00:24:04.351Z,3.73
2022-10-02T00:26:39.899Z,3.57
2022-10-02T00:29:25.374Z,5.20
2022-10-02T00:32:11.175Z,4.67
2022-10-02T00:34:50.540Z,4.13
2022-10-02T00:37:26.544Z,4.27
2022-10-02T00:40:10.902Z,3.60
2022-10-02T00:42:57.827Z,3.97
2022-10-02T00:45:46.062Z,4.40
2022-10-02T00:48:31.667Z,4.07
2022-10-02T00:51:09.449Z,5.63
2022-10-02T00:53:47.730Z,3.77
2022-10-02T00:56:29.092Z,2.23
2022-10-02T00:59:08.238Z,4.57
2022-10-02T01:01:42.585Z,2.87
2022-10-02T01:04:14.238Z,4.03
2022-10-02T01:06:42.558Z,2.80
2022-10-02T01:09:11.029Z,2.97
2022-10-02T01:11:40.792Z,5.63
2022-10-02T01:14:08.984Z,4.83
2022-10-02T01:16:37.025Z,3.13
2022-10-02T01:19:05.093Z,5.03
2022-10-02T01:21:43.165Z,5.93
2022-10-02T01:24:18.435Z,3.13
2022-10-02T01:26:47.602Z,4.67
2022-10-02T01:29:15.498Z,1.97
2022-10-02T01:31:43.729Z,3.97
2022-10-02T01:34:11.854Z,3.10
2022-10-02T01:36:39.760Z,3.40
2022-10-02T01:39:08.251Z,4.33
2022-10-02T01:41:42.961Z,3.57
2022-10-02T01:44:13.893Z,3.53
2022-10-02T01:46:51.885Z,4.20
2022-10-02T01:49:36.800Z,3.00
2022-10-02T01:52:21.244Z,3.47
2022-10-02T01:55:01.471Z,4.00
2022-10-02T01:57:45.326Z,3.30
2022-10-02T02:00:18.387Z,2.40
2022-10-02T02:02:58.599Z,5.13
2022-10-02T02:05:35.745Z,9.70
2022-10-02T02:08:10.033Z,2.87
2022-10-02T02:10:53.642Z,2.37
2022-10-02T02:13:26.956Z,4.57
2022-10-02T02:16:03.160Z,4.70
2022-10-02T02:18:36.706Z,3.20
2022-10-02T02:21:10.059Z,3.93
2022-10-02T02:23:40.183Z,6.63
2022-10-02T02:26:12.441Z,4.37
2022-10-02T02:28:44.326Z,2.60
2022-10-02T02:31:18.987Z,4.70
2022-10-02T02:33:50.730Z,2.00
2022-10-02T02:36:21.835Z,4.73
2022-10-02T02:38:53.968Z,2.27
2022-10-02T02:41:26.834Z,2.23
2022-10-02T02:44:00.534Z,3.70
2022-10-02T02:47:00.033Z,1.93
2022-10-02T02:49:31.176Z,3.43
2022-10-02T02:52:02.720Z,2.03
2022-10-02T02:54:34.633Z,1.50
2022-10-02T02:57:05.962Z,3.07
2022-10-02T02:59:34.941Z,3.17
2022-10-02T03:02:04.138Z,3.20
2022-10-02T03:04:32.108Z,1.00
2022-10-02T03:07:03.498Z,3.00
2022-10-02T03:09:33.563Z,3.80
2022-10-02T03:12:13.765Z,4.00
2022-10-02T03:15:02.383Z,6.27
2022-10-02T03:17:43.916Z,4.30
2022-10-02T03:20:17.735Z,3.57
2022-10-02T03:22:55.603Z,3.30
2022-10-02T03:25:29.819Z,3.40
2022-10-02T03:28:04.258Z,4.17
2022-10-02T03:30:32.977Z,6.20
2022-10-02T03:33:03.984Z,4.00
2022-10-02T03:35:33.499Z,3.90
2022-10-02T03:38:06.082Z,2.83
2022-10-02T03:40:34.084Z,2.70
2022-10-02T03:43:02.416Z,4.77
2022-10-02T03:45:50.554Z,5.50
2022-10-02T03:48:41.655Z,3.07
2022-10-02T03:51:09.414Z,3.03
2022-10-02T03:53:37.269Z,7.17
2022-10-02T03:56:09.068Z,4.43
2022-10-02T03:58:40.362Z,4.53
2022-10-02T04:01:14.349Z,2.83
2022-10-02T04:03:49.625Z,3.20
2022-10-02T04:06:21.872Z,3.53
2022-10-02T04:08:55.445Z,3.27
2022-10-02T04:11:32.429Z,4.60
2022-10-02T04:14:08.535Z,3.60
2022-10-02T04:16:44.547Z,4.70
2022-10-02T04:19:26.072Z,2.60
2022-10-02T04:22:00.336Z,4.13
2022-10-02T04:24:33.090Z,1.83
2022-10-02T04:27:06.003Z,3.50
2022-10-02T04:29:39.849Z,3.97
2022-10-02T04:32:14.375Z,4.20
2022-10-02T04:34:43.717Z,4.07
2022-10-02T04:37:32.902Z,2.57
2022-10-02T04:40:30.998Z,2.60
2022-10-02T04:43:15.281Z,2.83
2022-10-02T04:45:58.937Z,2.37
2022-10-02T04:48:57.178Z,2.57
2022-10-02T04:51:40.432Z,3.07
2022-10-02T04:54:31.650Z,2.87
2022-10-02T04:57:15.203Z,2.53
2022-10-02T05:00:02.905Z,2.10
2022-10-02T05:02:45.437Z,2.03
2022-10-02T05:05:24.632Z,2.57
2022-10-02T05:08:25.416Z,5.00
2022-10-02T05:11:08.630Z,1.73
2022-10-02T05:13:57.908Z,1.40
2022-10-02T05:16:50.323Z,1.60
2022-10-02T05:19:41.203Z,1.30
2022-10-02T05:22:27.259Z,1.50
2022-10-02T05:25:13.251Z,1.60
2022-10-02T05:28:06.953Z,1.03
2022-10-02T05:30:46.265Z,1.00
2022-10-02T05:33:36.898Z,2.00
2022-10-02T05:36:29.232Z,1.70
2022-10-02T05:39:08.223Z,1.37
2022-10-02T05:41:49.927Z,1.73
2022-10-02T05:44:23.015Z,3.77
2022-10-02T05:46:56.829Z,2.60
2022-10-02T05:49:30.555Z,2.23
2022-10-02T05:52:02.567Z,3.40
2022-10-02T05:54:38.372Z,2.10
2022-10-02T05:57:15.655Z,2.83
2022-10-02T05:59:53.618Z,1.90
2022-10-02T06:02:29.461Z,2.77
2022-10-02T06:05:06.422Z,5.30
2022-10-02T06:07:34.728Z,11.03
2022-10-02T06:10:07.376Z,6.10
2022-10-02T06:12:41.966Z,5.20
2022-10-02T06:15:22.661Z,4.97
2022-10-02T06:17:56.762Z,6.97
2022-10-02T06:20:30.634Z,5.83
2022-10-02T06:23:04.784Z,3.50
2022-10-02T06:25:37.899Z,3.93
2022-10-02T06:28:15.029Z,4.73
2022-10-02T06:30:47.808Z,3.90
2022-10-02T06:33:20.998Z,8.17
2022-10-02T06:36:13.981Z,5.97
2022-10-02T06:39:02.065Z,5.00
2022-10-02T06:41:39.371Z,5.13
2022-10-02T06:44:17.833Z,4.70
2022-10-02T06:46:54.430Z,7.53
2022-10-02T06:49:38.080Z,6.37
2022-10-02T06:52:19.971Z,6.20
2022-10-02T06:55:01.703Z,3.77
2022-10-02T06:57:49.163Z,4.27
2022-10-02T07:00:21.255Z,6.23
2022-10-02T07:03:23.014Z,6.30
2022-10-02T07:06:14.974Z,4.80
2022-10-02T07:09:01.532Z,5.97
2022-10-02T07:11:40.887Z,8.13
2022-10-02T07:14:28.016Z,5.50
2022-10-02T07:17:21.613Z,7.40
2022-10-02T07:20:11.647Z,7.33
2022-10-02T07:22:55.061Z,5.20
2022-10-02T07:25:47.204Z,3.70
2022-10-02T07:28:21.234Z,5.00
2022-10-02T07:31:05.121Z,6.43
2022-10-02T07:33:51.816Z,5.57
2022-10-02T07:36:29.819Z,3.00
2022-10-02T07:39:16.023Z,3.33
2022-10-02T07:42:01.418Z,5.83
2022-10-02T07:44:41.794Z,5.40
2022-10-02T07:47:24.914Z,4.03
2022-10-02T07:49:57.956Z,4.43
2022-10-02T07:52:36.813Z,5.80
2022-10-02T07:55:19.842Z,4.60
2022-10-02T07:57:57.463Z,5.53
2022-10-02T08:00:27.535Z,3.67
2022-10-02T08:03:00.300Z,4.67
2022-10-02T08:05:32.112Z,3.50
2022-10-02T08:08:04.430Z,6.13
2022-10-02T08:10:38.191Z,5.90
2022-10-02T08:13:14.722Z,4.30
2022-10-02T08:15:45.498Z,7.80
2022-10-02T08:18:34.036Z,10.27
2022-10-02T08:21:06.453Z,7.87
2022-10-02T08:23:40.605Z,10.73
2022-10-02T08:26:13.556Z,9.90
2022-10-02T08:28:46.977Z,7.47
2022-10-02T08:31:16.279Z,9.13
2022-10-02T08:33:44.165Z,7.50
2022-10-02T08:36:40.038Z,7.20
2022-10-02T08:39:27.567Z,8.60
2022-10-02T08:42:24.914Z,6.23
2022-10-02T08:45:26.601Z,7.07
2022-10-02T08:48:30.957Z,5.80
2022-10-02T08:51:36.587Z,6.90
2022-10-02T08:54:38.725Z,10.30
2022-10-02T08:57:37.796Z,7.57
2022-10-02T09:00:15.426Z,9.20
2022-10-02T09:03:44.260Z,8.47
2022-10-02T09:06:42.001Z,12.57
2022-10-02T09:09:45.514Z,3.97
2022-10-02T09:12:37.840Z,7.70
2022-10-02T09:15:16.406Z,10.50
2022-10-02T09:17:47.377Z,8.13
2022-10-02T09:21:06.956Z,7.70
2022-10-02T09:24:28.315Z,8.33
2022-10-02T09:27:25.875Z,8.03
2022-10-02T09:30:20.856Z,10.53
2022-10-02T09:33:32.942Z,10.73
2022-10-02T09:36:47.515Z,7.03
2022-10-02T09:39:43.829Z,6.37
2022-10-02T09:42:49.719Z,9.57
2022-10-02T09:45:41.064Z,6.03
2022-10-02T09:48:49.147Z,4.23
2022-10-02T09:51:53.084Z,7.73
2022-10-02T09:54:56.395Z,7.97
2022-10-02T09:58:05.675Z,8.97
2022-10-02T10:01:14.317Z,8.30
2022-10-02T10:04:02.110Z,7.13
2022-10-02T10:06:53.903Z,6.77
2022-10-02T10:10:00.837Z,7.43
2022-10-02T10:12:58.628Z,7.00
2022-10-02T10:15:54.060Z,7.70
2022-10-02T10:19:02.598Z,6.23
2022-10-02T10:22:03.390Z,7.17
2022-10-02T10:25:05.259Z,9.40
2022-10-02T10:28:14.580Z,5.43
2022-10-02T10:31:16.195Z,6.80
2022-10-02T10:34:18.691Z,5.87
2022-10-02T10:37:13.029Z,5.23
2022-10-02T10:40:26.002Z,5.40
2022-10-02T10:43:28.062Z,5.77
2022-10-02T10:46:30.029Z,6.40
2022-10-02T10:49:23.288Z,6.07
2022-10-02T10:52:23.820Z,5.00
2022-10-02T10:55:36.778Z,6.03
2022-10-02T10:58:39.205Z,6.87
2022-10-02T11:01:24.401Z,3.70
2022-10-02T11:04:42.969Z,7.23
2022-10-02T11:07:44.130Z,6.10
2022-10-02T11:10:37.341Z,3.87
2022-10-02T11:13:45.461Z,6.60
2022-10-02T11:19:52.355Z,3.50
2022-10-02T11:22:56.272Z,4.53
2022-10-02T11:25:56.845Z,4.37
2022-10-02T11:29:00.892Z,6.13
2022-10-02T11:32:25.407Z,5.17
2022-10-02T11:35:29.016Z,6.13
2022-10-02T11:38:38.765Z,4.47
2022-10-02T11:41:37.951Z,5.10
2022-10-02T11:44:24.891Z,5.33
2022-10-02T11:47:28.782Z,9.57
2022-10-02T11:50:38.819Z,6.07
2022-10-02T11:53:32.315Z,4.90
2022-10-02T11:56:14.743Z,6.80
2022-10-02T11:58:51.247Z,3.87
2022-10-02T12:01:26.407Z,7.17
2022-10-02T12:04:07.571Z,5.93
2022-10-02T12:07:05.001Z,4.43
2022-10-02T12:09:44.733Z,4.63
2022-10-02T12:12:27.963Z,5.10
2022-10-02T12:15:06.487Z,5.33
2022-10-02T12:18:07.733Z,3.97
2022-10-02T12:21:07.880Z,4.67
2022-10-02T12:24:07.455Z,2.77
2022-10-02T12:27:04.670Z,4.43
2022-10-02T12:29:47.090Z,5.17
2022-10-02T12:32:28.566Z,4.53
2022-10-02T12:35:15.588Z,4.33
2022-10-02T12:37:51.747Z,3.73
2022-10-02T12:40:31.846Z,4.97
2022-10-02T12:43:35.550Z,3.47
2022-10-02T12:46:19.010Z,4.70
2022-10-02T12:49:04.085Z,3.57
2022-10-02T12:51:39.996Z,4.33
2022-10-02T12:54:53.992Z,3.10
2022-10-02T12:57:57.443Z,3.23
2022-10-02T13:00:29.760Z,4.00
2022-10-02T13:03:31.457Z,5.37
2022-10-02T13:06:29.691Z,3.37
2022-10-02T13:09:11.625Z,3.73
2022-10-02T13:11:55.703Z,7.53
2022-10-02T13:14:45.103Z,7.47
2022-10-02T13:17:28.760Z,7.80
2022-10-02T13:20:05.804Z,4.87
2022-10-02T13:22:43.475Z,5.43
2022-10-02T13:25:39.067Z,3.90
2022-10-02T13:28:21.073Z,3.90
2022-10-02T13:31:03.043Z,3.90
2022-10-02T13:33:51.621Z,3.83
2022-10-02T13:36:34.589Z,3.33
2022-10-02T13:39:21.505Z,8.47
2022-10-02T13:42:04.857Z,4.43
2022-10-02T13:44:39.344Z,5.20
2022-10-02T13:47:39.719Z,3.07
2022-10-02T13:50:18.515Z,3.93
2022-10-02T13:53:05.896Z,5.17
2022-10-02T13:55:39.245Z,3.50
2022-10-02T13:58:29.711Z,2.20
2022-10-02T14:01:05.143Z,1.40
2022-10-02T14:03:48.909Z,3.47
2022-10-02T14:06:25.060Z,3.17
2022-10-02T14:09:15.853Z,1.77
2022-10-02T14:11:58.681Z,1.73
2022-10-02T14:14:39.730Z,2.23
2022-10-02T14:17:20.171Z,0.83
2022-10-02T14:20:15.188Z,1.93
2022-10-02T14:22:59.782Z,2.37
2022-10-02T14:25:43.323Z,2.77
2022-10-02T14:28:31.768Z,1.67
2022-10-02T14:31:10.849Z,3.53
2022-10-02T14:34:06.947Z,2.60
2022-10-02T14:36:46.620Z,2.80
2022-10-02T14:39:29.040Z,3.63
2022-10-02T14:42:11.442Z,3.00
2022-10-02T14:44:56.992Z,2.97
2022-10-02T14:47:36.025Z,4.37
2022-10-02T14:50:23.436Z,2.73
2022-10-02T14:53:16.222Z,3.30
2022-10-02T14:56:09.924Z,2.50
2022-10-02T14:58:55.089Z,2.20
2022-10-02T15:01:24.243Z,3.67
2022-10-02T15:04:13.623Z,4.17
2022-10-02T15:07:14.056Z,4.67
2022-10-02T15:09:59.052Z,2.30
2022-10-02T15:12:34.635Z,2.77
2022-10-02T15:15:13.325Z,4.80
2022-10-02T15:17:57.374Z,3.33
2022-10-02T15:20:32.035Z,4.57
2022-10-02T15:23:02.012Z,3.07
2022-10-02T15:25:43.283Z,5.37
2022-10-02T15:28:37.340Z,3.30
2022-10-02T15:31:17.276Z,4.10
2022-10-02T15:33:53.445Z,3.43
2022-10-02T15:36:41.223Z,4.07
2022-10-02T15:39:26.886Z,2.90
2022-10-02T15:42:06.872Z,2.13
2022-10-02T15:44:56.148Z,2.93
2022-10-02T15:47:40.806Z,2.50
2022-10-02T15:50:23.588Z,3.47
2022-10-02T15:53:02.150Z,2.63
2022-10-02T15:55:38.779Z,2.20
2022-10-02T15:58:26.246Z,3.33
2022-10-02T16:01:21.445Z,2.60
2022-10-02T16:03:52.939Z,4.03
2022-10-02T16:06:35.136Z,2.30
2022-10-02T16:09:35.912Z,3.47
2022-10-02T16:12:28.043Z,4.47
2022-10-02T16:15:08.829Z,4.77
2022-10-02T16:17:46.593Z,4.03
2022-10-02T16:20:34.530Z,4.10
2022-10-02T16:23:34.887Z,2.70
2022-10-02T16:26:16.483Z,2.53
2022-10-02T16:29:03.828Z,4.73
2022-10-02T16:31:55.726Z,2.57
2022-10-02T16:34:39.711Z,2.40
2022-10-02T16:37:19.239Z,3.07
2022-10-02T16:40:04.293Z,3.83
2022-10-02T16:42:43.775Z,3.73
2022-10-02T16:45:30.770Z,1.87
2022-10-02T16:48:08.780Z,4.13
2022-10-02T16:51:04.688Z,2.37
2022-10-02T16:53:38.195Z,3.07
2022-10-02T16:56:12.387Z,2.17
2022-10-02T16:58:46.092Z,3.40
2022-10-02T17:01:25.550Z,2.60
2022-10-02T17:04:23.114Z,3.67
2022-10-02T17:06:59.982Z,1.93
2022-10-02T17:09:40.746Z,3.97
2022-10-02T17:12:20.348Z,2.07
2022-10-02T17:14:56.047Z,3.73
2022-10-02T17:17:30.239Z,5.27
2022-10-02T17:20:16.810Z,4.63
2022-10-02T17:22:56.374Z,3.50
2022-10-02T17:25:31.011Z,3.27
2022-10-02T17:28:06.087Z,3.50
2022-10-02T17:31:05.998Z,2.10
2022-10-02T17:33:45.005Z,3.17
2022-10-02T17:36:19.536Z,2.60
2022-10-02T17:39:29.733Z,2.13
2022-10-02T17:42:06.906Z,2.50
2022-10-02T17:44:46.243Z,1.97
2022-10-02T17:47:42.963Z,1.87
2022-10-02T17:50:33.531Z,1.57
2022-10-02T17:53:33.266Z,3.67
2022-10-02T17:56:31.514Z,2.57
2022-10-02T17:59:17.130Z,3.13
2022-10-02T18:01:54.841Z,3.50
2022-10-02T18:04:33.466Z,3.87
2022-10-02T18:07:17.765Z,2.43
2022-10-02T18:09:56.793Z,4.03
2022-10-02T18:12:45.502Z,2.27
2022-10-02T18:15:40.107Z,4.03
2022-10-02T18:18:24.086Z,2.93
2022-10-02T18:21:03.576Z,2.67
2022-10-02T18:23:50.448Z,1.53
2022-10-02T18:26:33.735Z,4.53
2022-10-02T18:29:15.020Z,3.00
2022-10-02T18:32:00.021Z,4.17
2022-10-02T18:34:55.968Z,2.57
2022-10-02T18:37:43.387Z,5.07
2022-10-02T18:40:23.200Z,2.63
2022-10-02T18:43:22.049Z,2.50
2022-10-02T18:46:04.359Z,4.33
2022-10-02T18:48:47.203Z,2.90
2022-10-02T18:51:30.148Z,3.73
2022-10-02T18:54:20.644Z,2.33
2022-10-02T18:57:00.187Z,2.70
2022-10-02T18:59:38.993Z,2.47
2022-10-02T19:02:26.271Z,2.97
2022-10-02T19:05:26.851Z,2.43
2022-10-02T19:08:07.186Z,4.23
2022-10-02T19:10:45.009Z,2.63
2022-10-02T19:13:21.675Z,2.60
2022-10-02T19:15:52.325Z,3.20
2022-10-02T19:18:23.542Z,1.80
2022-10-02T19:20:57.794Z,2.83
2022-10-02T19:23:32.846Z,2.37
2022-10-02T19:26:05.761Z,2.40
2022-10-02T19:28:46.956Z,2.40
2022-10-02T19:31:22.755Z,3.17
2022-10-02T19:33:56.975Z,1.93
2022-10-02T19:36:28.304Z,3.27
2022-10-02T19:39:01.383Z,1.93
2022-10-02T19:41:35.902Z,2.07
2022-10-02T19:44:11.819Z,4.37
2022-10-02T19:46:44.129Z,3.97
2022-10-02T19:49:20.302Z,2.53
2022-10-02T19:51:48.782Z,3.20
2022-10-02T19:54:20.887Z,2.20
2022-10-02T19:56:48.764Z,1.67
2022-10-02T19:59:20.021Z,2.37
2022-10-02T20:01:51.999Z,3.07
2022-10-02T20:04:22.710Z,2.80
2022-10-02T20:06:53.877Z,3.13
2022-10-02T20:09:28.143Z,4.33
2022-10-02T20:12:01.119Z,3.20
2022-10-02T20:14:33.658Z,4.37
2022-10-02T20:17:09.448Z,5.27
2022-10-02T20:19:45.167Z,5.43
2022-10-02T20:22:23.319Z,4.13
2022-10-02T20:24:57.839Z,3.87
2022-10-02T20:27:33.158Z,5.60
2022-10-02T20:30:06.153Z,7.20
2022-10-02T20:32:39.135Z,5.30
2022-10-02T20:35:15.340Z,5.57
2022-10-02T20:37:44.409Z,5.70
2022-10-02T20:40:18.881Z,3.80
2022-10-02T20:42:57.737Z,6.10
2022-10-02T20:45:35.382Z,4.43
2022-10-02T20:49:06.337Z,5.20
2022-10-02T20:51:50.508Z,5.23
2022-10-02T20:54:35.912Z,7.50
2022-10-02T20:58:02.191Z,5.27
2022-10-02T21:00:41.945Z,6.37
2022-10-02T21:03:30.791Z,6.83
2022-10-02T21:06:14.359Z,5.50
2022-10-02T21:09:17.525Z,6.27
2022-10-02T21:12:05.229Z,5.90
2022-10-02T21:15:04.006Z,6.27
2022-10-02T21:18:06.972Z,4.00
2022-10-02T21:21:01.873Z,6.67
2022-10-02T21:23:54.600Z,6.30
2022-10-02T21:26:45.993Z,6.30
2022-10-02T21:29:33.673Z,7.57
2022-10-02T21:32:30.110Z,7.57
2022-10-02T21:35:10.174Z,7.73
2022-10-02T21:37:53.575Z,7.50
2022-10-02T21:41:10.580Z,12.30
2022-10-02T21:44:17.884Z,6.90
2022-10-02T21:47:10.337Z,7.33
2022-10-02T21:50:18.031Z,6.47
2022-10-02T21:53:33.512Z,5.87
2022-10-02T21:56:52.647Z,6.70
2022-10-02T22:00:02.746Z,5.17
2022-10-02T22:02:56.816Z,5.17
2022-10-02T22:06:01.705Z,3.13
2022-10-02T22:08:36.443Z,2.20
2022-10-02T22:11:14.700Z,3.43
2022-10-02T22:13:44.255Z,3.33
2022-10-02T22:16:27.074Z,3.33
2022-10-02T22:19:00.079Z,2.43
2022-10-02T22:21:57.268Z,4.30
2022-10-02T22:24:49.808Z,5.17
2022-10-02T22:27:28.079Z,3.43
2022-10-02T22:29:57.246Z,5.70
2022-10-02T22:33:09.035Z,4.00
2022-10-02T22:35:58.679Z,6.07
2022-10-02T22:38:33.160Z,4.20
2022-10-02T22:41:07.259Z,7.17
2022-10-02T22:43:46.386Z,5.67
2022-10-02T22:46:25.766Z,6.27
2022-10-02T22:49:02.254Z,6.00
2022-10-02T22:51:39.058Z,9.60
2022-10-02T22:54:19.600Z,7.37
2022-10-02T22:56:55.493Z,4.87
2022-10-02T22:59:30.761Z,4.17
2022-10-02T23:02:07.762Z,3.93
2022-10-02T23:04:44.891Z,5.90
2022-10-02T23:07:17.887Z,5.30
2022-10-02T23:09:51.716Z,4.77
2022-10-02T23:12:27.681Z,6.27
2022-10-02T23:15:03.987Z,4.47
2022-10-02T23:17:38.426Z,6.17
2022-10-02T23:20:17.165Z,8.43
2022-10-02T23:22:54.329Z,7.47
2022-10-02T23:25:29.506Z,5.17
2022-10-02T23:28:01.247Z,9.17
2022-10-02T23:30:32.619Z,5.93
2022-10-02T23:33:03.867Z,5.27
2022-10-02T23:35:45.405Z,5.63
2022-10-02T23:38:19.420Z,6.57
2022-10-02T23:41:20.910Z,5.37
2022-10-02T23:44:00.787Z,5.60
2022-10-02T23:46:35.834Z,4.27
2022-10-02T23:49:04.594Z,8.23
2022-10-02T23:51:44.385Z,7.40
2022-10-02T23:54:36.301Z,5.73
2022-10-02T23:57:24.134Z,6.23
